sensor_id;sensor_type;location;lat;lon;timestamp;P1;durP1;ratioP1;P2;durP2;ratioP2
1414;SDS011;702;49.466;11.086;2023-08-17T00:02:04;7.77;;;7.07;;
1414;SDS011;702;49.466;11.086;2023-08-17T00:04:31;7.47;;;6.83;;
1414;SDS011;702;49.466;11.086;2023-08-17T00:06:59;7.40;;;6.80;;
1414;SDS011;702;49.466;11.086;2023-08-17T00:09:26;7.80;;;7.10;;
1414;SDS011;702;49.466;11.086;2023-08-17T00:11:55;11.43;;;7.43;;
1414;SDS011;702;49.466;11.086;2023-08-17T00:14:22;8.00;;;7.27;;
1414;SDS011;702;49.466;11.086;2023-08-17T00:16:49;7.67;;;7.00;;
1414;SDS011;702;49.466;11.086;2023-08-17T00:19:17;7.77;;;7.07;;
1414;SDS011;702;49.466;11.086;2023-08-17T00:21:44;8.03;;;7.23;;
1414;SDS011;702;49.466;11.086;2023-08-17T00:24:12;8.07;;;7.40;;
1414;SDS011;702;49.466;11.086;2023-08-17T00:26:39;9.23;;;7.03;;
1414;SDS011;702;49.466;11.086;2023-08-17T00:29:07;8.00;;;7.23;;
1414;SDS011;702;49.466;11.086;2023-08-17T00:31:35;8.73;;;6.90;;
1414;SDS011;702;49.466;11.086;2023-08-17T00:34:02;7.80;;;7.20;;
1414;SDS011;702;49.466;11.086;2023-08-17T00:36:29;8.10;;;7.40;;
1414;SDS011;702;49.466;11.086;2023-08-17T00:38:57;8.40;;;7.60;;
1414;SDS011;702;49.466;11.086;2023-08-17T00:41:24;7.90;;;7.17;;
1414;SDS011;702;49.466;11.086;2023-08-17T00:43:51;8.20;;;7.47;;
1414;SDS011;702;49.466;11.086;2023-08-17T00:46:19;7.93;;;7.23;;
1414;SDS011;702;49.466;11.086;2023-08-17T00:48:48;8.37;;;7.67;;
1414;SDS011;702;49.466;11.086;2023-08-17T00:51:15;8.27;;;7.40;;
1414;SDS011;702;49.466;11.086;2023-08-17T00:53:45;8.60;;;7.90;;
1414;SDS011;702;49.466;11.086;2023-08-17T00:56:13;9.00;;;8.10;;
1414;SDS011;702;49.466;11.086;2023-08-17T00:58:40;8.57;;;7.87;;
1414;SDS011;702;49.466;11.086;2023-08-17T01:01:08;9.40;;;7.67;;
1414;SDS011;702;49.466;11.086;2023-08-17T01:03:36;9.67;;;7.63;;
1414;SDS011;702;49.466;11.086;2023-08-17T01:06:07;8.73;;;8.00;;
1414;SDS011;702;49.466;11.086;2023-08-17T01:08:34;8.83;;;7.73;;
1414;SDS011;702;49.466;11.086;2023-08-17T01:11:05;9.53;;;8.53;;
1414;SDS011;702;49.466;11.086;2023-08-17T01:13:47;9.37;;;8.50;;
1414;SDS011;702;49.466;11.086;2023-08-17T01:16:24;8.67;;;7.87;;
1414;SDS011;702;49.466;11.086;2023-08-17T01:18:55;9.20;;;8.40;;
1414;SDS011;702;49.466;11.086;2023-08-17T01:21:27;8.97;;;8.27;;
1414;SDS011;702;49.466;11.086;2023-08-17T01:24:04;9.00;;;8.20;;
1414;SDS011;702;49.466;11.086;2023-08-17T01:26:32;9.23;;;8.43;;
1414;SDS011;702;49.466;11.086;2023-08-17T01:28:59;9.73;;;8.93;;
1414;SDS011;702;49.466;11.086;2023-08-17T01:31:28;9.53;;;8.73;;
1414;SDS011;702;49.466;11.086;2023-08-17T01:34:00;9.70;;;8.90;;
1414;SDS011;702;49.466;11.086;2023-08-17T01:36:33;8.77;;;8.00;;
1414;SDS011;702;49.466;11.086;2023-08-17T01:39:07;9.10;;;8.20;;
1414;SDS011;702;49.466;11.086;2023-08-17T01:41:36;9.33;;;8.53;;
1414;SDS011;702;49.466;11.086;2023-08-17T01:44:05;9.07;;;8.37;;
1414;SDS011;702;49.466;11.086;2023-08-17T01:46:33;8.80;;;8.10;;
1414;SDS011;702;49.466;11.086;2023-08-17T01:49:00;8.83;;;8.13;;
1414;SDS011;702;49.466;11.086;2023-08-17T01:51:28;8.70;;;8.10;;
1414;SDS011;702;49.466;11.086;2023-08-17T01:53:55;8.00;;;7.40;;
1414;SDS011;702;49.466;11.086;2023-08-17T01:56:23;9.13;;;8.43;;
1414;SDS011;702;49.466;11.086;2023-08-17T01:58:50;9.37;;;8.57;;
1414;SDS011;702;49.466;11.086;2023-08-17T02:01:18;9.10;;;8.30;;
1414;SDS011;702;49.466;11.086;2023-08-17T02:03:45;8.57;;;7.97;;
1414;SDS011;702;49.466;11.086;2023-08-17T02:06:12;8.73;;;8.00;;
1414;SDS011;702;49.466;11.086;2023-08-17T02:08:40;9.00;;;8.20;;
1414;SDS011;702;49.466;11.086;2023-08-17T02:11:08;8.67;;;7.97;;
1414;SDS011;702;49.466;11.086;2023-08-17T02:13:37;8.57;;;7.77;;
1414;SDS011;702;49.466;11.086;2023-08-17T02:16:04;8.87;;;8.10;;
1414;SDS011;702;49.466;11.086;2023-08-17T02:18:31;9.73;;;8.83;;
1414;SDS011;702;49.466;11.086;2023-08-17T02:21:00;9.80;;;8.63;;
1414;SDS011;702;49.466;11.086;2023-08-17T02:23:27;7.80;;;7.20;;
1414;SDS011;702;49.466;11.086;2023-08-17T02:25:54;8.67;;;7.73;;
1414;SDS011;702;49.466;11.086;2023-08-17T02:28:21;9.30;;;8.60;;
1414;SDS011;702;49.466;11.086;2023-08-17T02:30:54;9.27;;;8.27;;
1414;SDS011;702;49.466;11.086;2023-08-17T02:33:21;13.43;;;8.20;;
1414;SDS011;702;49.466;11.086;2023-08-17T02:35:49;9.40;;;8.70;;
1414;SDS011;702;49.466;11.086;2023-08-17T02:38:17;8.53;;;7.70;;
1414;SDS011;702;49.466;11.086;2023-08-17T02:40:45;8.80;;;8.20;;
1414;SDS011;702;49.466;11.086;2023-08-17T02:43:12;8.20;;;7.40;;
1414;SDS011;702;49.466;11.086;2023-08-17T02:45:39;8.70;;;7.90;;
1414;SDS011;702;49.466;11.086;2023-08-17T02:48:07;10.20;;;8.27;;
1414;SDS011;702;49.466;11.086;2023-08-17T02:50:35;8.63;;;7.83;;
1414;SDS011;702;49.466;11.086;2023-08-17T02:53:02;8.43;;;7.70;;
1414;SDS011;702;49.466;11.086;2023-08-17T02:55:29;8.80;;;8.10;;
1414;SDS011;702;49.466;11.086;2023-08-17T02:57:57;9.50;;;8.70;;
1414;SDS011;702;49.466;11.086;2023-08-17T03:00:24;9.20;;;8.17;;
1414;SDS011;702;49.466;11.086;2023-08-17T03:02:51;9.40;;;8.47;;
1414;SDS011;702;49.466;11.086;2023-08-17T03:05:19;9.43;;;8.63;;
1414;SDS011;702;49.466;11.086;2023-08-17T03:07:47;10.10;;;8.83;;
1414;SDS011;702;49.466;11.086;2023-08-17T03:10:14;9.30;;;8.40;;
1414;SDS011;702;49.466;11.086;2023-08-17T03:12:41;8.53;;;7.83;;
1414;SDS011;702;49.466;11.086;2023-08-17T03:15:09;9.17;;;8.37;;
1414;SDS011;702;49.466;11.086;2023-08-17T03:17:36;8.80;;;8.17;;
1414;SDS011;702;49.466;11.086;2023-08-17T03:20:04;8.93;;;8.20;;
1414;SDS011;702;49.466;11.086;2023-08-17T03:22:34;10.13;;;8.37;;
1414;SDS011;702;49.466;11.086;2023-08-17T03:25:01;9.63;;;8.83;;
1414;SDS011;702;49.466;11.086;2023-08-17T03:27:29;9.53;;;8.83;;
1414;SDS011;702;49.466;11.086;2023-08-17T03:29:56;9.80;;;9.00;;
1414;SDS011;702;49.466;11.086;2023-08-17T03:32:23;9.90;;;9.00;;
1414;SDS011;702;49.466;11.086;2023-08-17T03:34:50;9.73;;;8.83;;
1414;SDS011;702;49.466;11.086;2023-08-17T03:37:17;10.80;;;9.70;;
1414;SDS011;702;49.466;11.086;2023-08-17T03:39:46;8.73;;;8.03;;
1414;SDS011;702;49.466;11.086;2023-08-17T03:42:13;9.53;;;8.63;;
1414;SDS011;702;49.466;11.086;2023-08-17T03:44:40;9.37;;;8.50;;
1414;SDS011;702;49.466;11.086;2023-08-17T03:47:07;8.60;;;7.80;;
1414;SDS011;702;49.466;11.086;2023-08-17T03:49:34;9.80;;;7.97;;
1414;SDS011;702;49.466;11.086;2023-08-17T03:52:01;9.30;;;8.50;;
1414;SDS011;702;49.466;11.086;2023-08-17T03:54:29;10.03;;;9.13;;
1414;SDS011;702;49.466;11.086;2023-08-17T03:56:57;9.93;;;8.90;;
1414;SDS011;702;49.466;11.086;2023-08-17T03:59:24;10.10;;;9.30;;
1414;SDS011;702;49.466;11.086;2023-08-17T04:01:52;8.93;;;8.13;;
1414;SDS011;702;49.466;11.086;2023-08-17T04:04:19;9.90;;;9.03;;
1414;SDS011;702;49.466;11.086;2023-08-17T04:06:46;9.57;;;8.77;;
1414;SDS011;702;49.466;11.086;2023-08-17T04:09:13;10.13;;;9.33;;
1414;SDS011;702;49.466;11.086;2023-08-17T04:11:40;10.07;;;9.27;;
1414;SDS011;702;49.466;11.086;2023-08-17T04:14:09;9.73;;;8.93;;
1414;SDS011;702;49.466;11.086;2023-08-17T04:16:37;9.63;;;8.83;;
1414;SDS011;702;49.466;11.086;2023-08-17T04:19:04;10.47;;;9.40;;
1414;SDS011;702;49.466;11.086;2023-08-17T04:21:31;10.17;;;9.30;;
1414;SDS011;702;49.466;11.086;2023-08-17T04:23:59;10.07;;;9.27;;
1414;SDS011;702;49.466;11.086;2023-08-17T04:26:26;10.33;;;9.43;;
1414;SDS011;702;49.466;11.086;2023-08-17T04:28:53;9.80;;;9.03;;
1414;SDS011;702;49.466;11.086;2023-08-17T04:31:21;10.37;;;9.37;;
1414;SDS011;702;49.466;11.086;2023-08-17T04:33:48;10.50;;;9.63;;
1414;SDS011;702;49.466;11.086;2023-08-17T04:36:16;11.67;;;10.07;;
1414;SDS011;702;49.466;11.086;2023-08-17T04:38:43;10.50;;;9.60;;
1414;SDS011;702;49.466;11.086;2023-08-17T04:41:10;9.80;;;9.00;;
1414;SDS011;702;49.466;11.086;2023-08-17T04:43:37;11.20;;;10.23;;
1414;SDS011;702;49.466;11.086;2023-08-17T04:46:05;11.87;;;10.30;;
1414;SDS011;702;49.466;11.086;2023-08-17T04:48:34;9.67;;;8.80;;
1414;SDS011;702;49.466;11.086;2023-08-17T04:51:01;10.90;;;9.97;;
1414;SDS011;702;49.466;11.086;2023-08-17T04:53:28;11.30;;;10.20;;
1414;SDS011;702;49.466;11.086;2023-08-17T04:55:56;10.87;;;9.10;;
1414;SDS011;702;49.466;11.086;2023-08-17T04:58:24;10.23;;;9.33;;
1414;SDS011;702;49.466;11.086;2023-08-17T05:00:52;10.27;;;9.27;;
1414;SDS011;702;49.466;11.086;2023-08-17T05:03:19;11.23;;;10.13;;
1414;SDS011;702;49.466;11.086;2023-08-17T05:05:47;10.67;;;9.73;;
1414;SDS011;702;49.466;11.086;2023-08-17T05:08:14;10.67;;;9.63;;
1414;SDS011;702;49.466;11.086;2023-08-17T05:10:41;9.60;;;8.80;;
1414;SDS011;702;49.466;11.086;2023-08-17T05:13:08;10.17;;;9.37;;
1414;SDS011;702;49.466;11.086;2023-08-17T05:15:35;10.20;;;9.30;;
1414;SDS011;702;49.466;11.086;2023-08-17T05:18:03;8.60;;;7.80;;
1414;SDS011;702;49.466;11.086;2023-08-17T05:20:31;8.80;;;8.10;;
1414;SDS011;702;49.466;11.086;2023-08-17T05:22:59;9.27;;;7.40;;
1414;SDS011;702;49.466;11.086;2023-08-17T05:25:27;10.13;;;8.00;;
1414;SDS011;702;49.466;11.086;2023-08-17T05:27:54;9.20;;;8.50;;
1414;SDS011;702;49.466;11.086;2023-08-17T05:30:22;9.53;;;8.60;;
1414;SDS011;702;49.466;11.086;2023-08-17T05:32:49;8.87;;;8.17;;
1414;SDS011;702;49.466;11.086;2023-08-17T05:35:16;9.00;;;8.30;;
1414;SDS011;702;49.466;11.086;2023-08-17T05:37:44;9.27;;;8.07;;
1414;SDS011;702;49.466;11.086;2023-08-17T05:40:12;7.97;;;7.37;;
1414;SDS011;702;49.466;11.086;2023-08-17T05:42:39;8.40;;;7.50;;
1414;SDS011;702;49.466;11.086;2023-08-17T05:45:07;7.83;;;7.10;;
1414;SDS011;702;49.466;11.086;2023-08-17T05:47:35;8.47;;;7.80;;
1414;SDS011;702;49.466;11.086;2023-08-17T05:50:03;8.53;;;7.73;;
1414;SDS011;702;49.466;11.086;2023-08-17T05:52:31;7.40;;;6.80;;
1414;SDS011;702;49.466;11.086;2023-08-17T05:54:58;8.53;;;7.83;;
1414;SDS011;702;49.466;11.086;2023-08-17T05:57:27;11.17;;;9.00;;
1414;SDS011;702;49.466;11.086;2023-08-17T05:59:54;8.93;;;8.03;;
1414;SDS011;702;49.466;11.086;2023-08-17T06:02:22;8.50;;;7.87;;
1414;SDS011;702;49.466;11.086;2023-08-17T06:04:49;9.90;;;8.07;;
1414;SDS011;702;49.466;11.086;2023-08-17T06:07:16;8.30;;;7.60;;
1414;SDS011;702;49.466;11.086;2023-08-17T06:09:43;9.13;;;8.23;;
1414;SDS011;702;49.466;11.086;2023-08-17T06:12:10;9.80;;;8.87;;
1414;SDS011;702;49.466;11.086;2023-08-17T06:14:39;9.50;;;8.57;;
1414;SDS011;702;49.466;11.086;2023-08-17T06:17:07;9.50;;;8.70;;
1414;SDS011;702;49.466;11.086;2023-08-17T06:19:35;9.13;;;8.33;;
1414;SDS011;702;49.466;11.086;2023-08-17T06:22:02;9.23;;;8.33;;
1414;SDS011;702;49.466;11.086;2023-08-17T06:24:29;10.53;;;9.57;;
1414;SDS011;702;49.466;11.086;2023-08-17T06:26:56;9.90;;;8.90;;
1414;SDS011;702;49.466;11.086;2023-08-17T06:29:23;9.10;;;8.40;;
1414;SDS011;702;49.466;11.086;2023-08-17T06:31:52;10.03;;;9.20;;
1414;SDS011;702;49.466;11.086;2023-08-17T06:34:20;10.00;;;9.10;;
1414;SDS011;702;49.466;11.086;2023-08-17T06:36:56;10.13;;;9.23;;
1414;SDS011;702;49.466;11.086;2023-08-17T06:39:24;10.30;;;9.40;;
1414;SDS011;702;49.466;11.086;2023-08-17T06:41:51;9.57;;;8.77;;
1414;SDS011;702;49.466;11.086;2023-08-17T06:44:19;10.83;;;8.40;;
1414;SDS011;702;49.466;11.086;2023-08-17T06:46:46;9.40;;;8.57;;
1414;SDS011;702;49.466;11.086;2023-08-17T06:49:15;8.80;;;8.00;;
1414;SDS011;702;49.466;11.086;2023-08-17T06:51:42;9.13;;;8.30;;
1414;SDS011;702;49.466;11.086;2023-08-17T06:54:09;9.20;;;8.50;;
1414;SDS011;702;49.466;11.086;2023-08-17T06:56:37;10.37;;;9.47;;
1414;SDS011;702;49.466;11.086;2023-08-17T06:59:04;9.40;;;8.60;;
1414;SDS011;702;49.466;11.086;2023-08-17T07:01:32;8.70;;;8.10;;
1414;SDS011;702;49.466;11.086;2023-08-17T07:03:59;9.27;;;8.50;;
1414;SDS011;702;49.466;11.086;2023-08-17T07:06:28;8.73;;;8.03;;
1414;SDS011;702;49.466;11.086;2023-08-17T07:08:56;9.47;;;8.40;;
1414;SDS011;702;49.466;11.086;2023-08-17T07:11:23;9.30;;;8.50;;
1414;SDS011;702;49.466;11.086;2023-08-17T07:13:50;9.83;;;8.73;;
1414;SDS011;702;49.466;11.086;2023-08-17T07:16:18;8.67;;;7.83;;
1414;SDS011;702;49.466;11.086;2023-08-17T07:18:45;10.00;;;9.03;;
1414;SDS011;702;49.466;11.086;2023-08-17T07:21:12;9.33;;;8.33;;
1414;SDS011;702;49.466;11.086;2023-08-17T07:23:44;9.13;;;8.43;;
1414;SDS011;702;49.466;11.086;2023-08-17T07:26:12;9.70;;;8.80;;
1414;SDS011;702;49.466;11.086;2023-08-17T07:28:39;8.50;;;7.80;;
1414;SDS011;702;49.466;11.086;2023-08-17T07:31:07;8.97;;;8.17;;
1414;SDS011;702;49.466;11.086;2023-08-17T07:33:34;9.47;;;8.67;;
1414;SDS011;702;49.466;11.086;2023-08-17T07:36:01;9.87;;;8.90;;
1414;SDS011;702;49.466;11.086;2023-08-17T07:38:29;8.57;;;7.77;;
1414;SDS011;702;49.466;11.086;2023-08-17T07:40:58;10.00;;;9.10;;
1414;SDS011;702;49.466;11.086;2023-08-17T07:43:25;10.40;;;8.70;;
1414;SDS011;702;49.466;11.086;2023-08-17T07:45:53;8.97;;;8.27;;
1414;SDS011;702;49.466;11.086;2023-08-17T07:48:21;10.03;;;9.13;;
1414;SDS011;702;49.466;11.086;2023-08-17T07:50:48;11.27;;;8.90;;
1414;SDS011;702;49.466;11.086;2023-08-17T07:53:17;10.80;;;9.70;;
1414;SDS011;702;49.466;11.086;2023-08-17T07:55:44;8.90;;;8.20;;
1414;SDS011;702;49.466;11.086;2023-08-17T07:58:13;9.00;;;8.30;;
1414;SDS011;702;49.466;11.086;2023-08-17T08:00:40;10.10;;;9.20;;
1414;SDS011;702;49.466;11.086;2023-08-17T08:03:07;9.63;;;8.83;;
1414;SDS011;702;49.466;11.086;2023-08-17T08:05:34;9.30;;;8.47;;
1414;SDS011;702;49.466;11.086;2023-08-17T08:08:01;10.30;;;9.40;;
1414;SDS011;702;49.466;11.086;2023-08-17T08:10:29;8.60;;;7.83;;
1414;SDS011;702;49.466;11.086;2023-08-17T08:12:56;9.47;;;8.77;;
1414;SDS011;702;49.466;11.086;2023-08-17T08:15:24;11.10;;;10.23;;
1414;SDS011;702;49.466;11.086;2023-08-17T08:17:52;9.80;;;9.00;;
1414;SDS011;702;49.466;11.086;2023-08-17T08:20:20;9.97;;;9.07;;
1414;SDS011;702;49.466;11.086;2023-08-17T08:22:47;11.83;;;9.90;;
1414;SDS011;702;49.466;11.086;2023-08-17T08:25:14;9.77;;;8.97;;
1414;SDS011;702;49.466;11.086;2023-08-17T08:27:41;9.93;;;9.23;;
1414;SDS011;702;49.466;11.086;2023-08-17T08:30:09;10.40;;;9.70;;
1414;SDS011;702;49.466;11.086;2023-08-17T08:32:38;8.90;;;8.20;;
1414;SDS011;702;49.466;11.086;2023-08-17T08:35:05;9.90;;;9.10;;
1414;SDS011;702;49.466;11.086;2023-08-17T08:37:33;9.73;;;8.93;;
1414;SDS011;702;49.466;11.086;2023-08-17T08:40:00;8.97;;;8.30;;
1414;SDS011;702;49.466;11.086;2023-08-17T08:42:27;10.50;;;9.60;;
1414;SDS011;702;49.466;11.086;2023-08-17T08:44:55;10.10;;;9.30;;
1414;SDS011;702;49.466;11.086;2023-08-17T08:47:22;9.30;;;8.40;;
1414;SDS011;702;49.466;11.086;2023-08-17T08:49:56;9.57;;;8.87;;
1414;SDS011;702;49.466;11.086;2023-08-17T08:52:31;10.40;;;9.50;;
1414;SDS011;702;49.466;11.086;2023-08-17T08:55:03;10.10;;;9.20;;
1414;SDS011;702;49.466;11.086;2023-08-17T08:57:38;12.07;;;10.90;;
1414;SDS011;702;49.466;11.086;2023-08-17T09:00:06;10.00;;;9.20;;
1414;SDS011;702;49.466;11.086;2023-08-17T09:02:34;10.00;;;9.20;;
1414;SDS011;702;49.466;11.086;2023-08-17T09:05:04;10.93;;;10.13;;
1414;SDS011;702;49.466;11.086;2023-08-17T09:07:33;10.47;;;9.70;;
1414;SDS011;702;49.466;11.086;2023-08-17T09:10:01;10.03;;;9.30;;
1414;SDS011;702;49.466;11.086;2023-08-17T09:12:29;10.30;;;9.47;;
1414;SDS011;702;49.466;11.086;2023-08-17T09:14:57;10.10;;;9.30;;
1414;SDS011;702;49.466;11.086;2023-08-17T09:17:25;10.00;;;9.20;;
1414;SDS011;702;49.466;11.086;2023-08-17T09:19:53;9.70;;;8.83;;
1414;SDS011;702;49.466;11.086;2023-08-17T09:22:26;10.17;;;9.43;;
1414;SDS011;702;49.466;11.086;2023-08-17T09:25:04;10.27;;;9.23;;
1414;SDS011;702;49.466;11.086;2023-08-17T09:27:33;10.33;;;9.33;;
1414;SDS011;702;49.466;11.086;2023-08-17T09:30:01;10.27;;;9.43;;
1414;SDS011;702;49.466;11.086;2023-08-17T09:32:30;9.20;;;8.40;;
1414;SDS011;702;49.466;11.086;2023-08-17T09:35:00;10.23;;;9.37;;
1414;SDS011;702;49.466;11.086;2023-08-17T09:37:30;10.90;;;9.90;;
1414;SDS011;702;49.466;11.086;2023-08-17T09:39:57;10.50;;;9.70;;
1414;SDS011;702;49.466;11.086;2023-08-17T09:42:25;10.70;;;9.73;;
1414;SDS011;702;49.466;11.086;2023-08-17T09:44:53;10.73;;;9.93;;
1414;SDS011;702;49.466;11.086;2023-08-17T09:47:21;11.07;;;10.20;;
1414;SDS011;702;49.466;11.086;2023-08-17T09:49:49;10.30;;;9.43;;
1414;SDS011;702;49.466;11.086;2023-08-17T09:52:18;11.10;;;10.13;;
1414;SDS011;702;49.466;11.086;2023-08-17T09:54:47;10.70;;;9.90;;
1414;SDS011;702;49.466;11.086;2023-08-17T09:57:15;9.57;;;8.87;;
1414;SDS011;702;49.466;11.086;2023-08-17T09:59:43;11.10;;;9.90;;
1414;SDS011;702;49.466;11.086;2023-08-17T10:02:17;10.10;;;9.40;;
1414;SDS011;702;49.466;11.086;2023-08-17T10:04:48;10.27;;;9.47;;
1414;SDS011;702;49.466;11.086;2023-08-17T10:07:18;11.37;;;10.50;;
1414;SDS011;702;49.466;11.086;2023-08-17T10:09:49;10.97;;;10.10;;
1414;SDS011;702;49.466;11.086;2023-08-17T10:12:24;10.33;;;9.53;;
1414;SDS011;702;49.466;11.086;2023-08-17T10:14:55;11.70;;;10.13;;
1414;SDS011;702;49.466;11.086;2023-08-17T10:17:26;10.63;;;9.87;;
1414;SDS011;702;49.466;11.086;2023-08-17T10:19:55;10.40;;;9.70;;
1414;SDS011;702;49.466;11.086;2023-08-17T10:22:26;10.13;;;9.40;;
1414;SDS011;702;49.466;11.086;2023-08-17T10:25:03;12.20;;;11.27;;
1414;SDS011;702;49.466;11.086;2023-08-17T10:27:33;11.57;;;10.67;;
1414;SDS011;702;49.466;11.086;2023-08-17T10:30:01;10.93;;;9.80;;
1414;SDS011;702;49.466;11.086;2023-08-17T10:32:30;10.60;;;9.60;;
1414;SDS011;702;49.466;11.086;2023-08-17T10:34:58;11.00;;;10.20;;
1414;SDS011;702;49.466;11.086;2023-08-17T10:37:26;10.57;;;9.77;;
1414;SDS011;702;49.466;11.086;2023-08-17T10:39:53;10.77;;;9.97;;
1414;SDS011;702;49.466;11.086;2023-08-17T10:42:31;10.97;;;10.17;;
1414;SDS011;702;49.466;11.086;2023-08-17T10:45:00;10.40;;;9.70;;
1414;SDS011;702;49.466;11.086;2023-08-17T10:47:29;9.60;;;8.70;;
1414;SDS011;702;49.466;11.086;2023-08-17T10:49:59;9.70;;;8.90;;
1414;SDS011;702;49.466;11.086;2023-08-17T10:52:30;10.30;;;9.50;;
1414;SDS011;702;49.466;11.086;2023-08-17T10:54:59;9.33;;;8.73;;
1414;SDS011;702;49.466;11.086;2023-08-17T10:57:32;10.60;;;9.70;;
1414;SDS011;702;49.466;11.086;2023-08-17T11:02:53;9.50;;;8.63;;
1414;SDS011;702;49.466;11.086;2023-08-17T11:05:34;10.40;;;9.50;;
1414;SDS011;702;49.466;11.086;2023-08-17T11:08:07;10.03;;;9.27;;
1414;SDS011;702;49.466;11.086;2023-08-17T11:10:35;10.70;;;9.77;;
1414;SDS011;702;49.466;11.086;2023-08-17T11:13:05;9.67;;;9.07;;
1414;SDS011;702;49.466;11.086;2023-08-17T11:15:36;10.00;;;9.20;;
1414;SDS011;702;49.466;11.086;2023-08-17T11:18:05;10.30;;;9.50;;
1414;SDS011;702;49.466;11.086;2023-08-17T11:20:33;10.07;;;9.27;;
1414;SDS011;702;49.466;11.086;2023-08-17T11:23:01;10.50;;;9.50;;
1414;SDS011;702;49.466;11.086;2023-08-17T11:25:31;9.10;;;8.50;;
1414;SDS011;702;49.466;11.086;2023-08-17T11:27:59;10.07;;;9.27;;
1414;SDS011;702;49.466;11.086;2023-08-17T11:30:28;9.27;;;8.60;;
1414;SDS011;702;49.466;11.086;2023-08-17T11:32:57;10.07;;;9.30;;
1414;SDS011;702;49.466;11.086;2023-08-17T11:35:24;9.63;;;8.93;;
1414;SDS011;702;49.466;11.086;2023-08-17T11:37:51;9.33;;;8.53;;
1414;SDS011;702;49.466;11.086;2023-08-17T11:40:18;9.90;;;9.10;;
1414;SDS011;702;49.466;11.086;2023-08-17T11:42:46;10.17;;;9.37;;
1414;SDS011;702;49.466;11.086;2023-08-17T11:45:13;9.97;;;9.23;;
1414;SDS011;702;49.466;11.086;2023-08-17T11:47:42;10.13;;;9.33;;
1414;SDS011;702;49.466;11.086;2023-08-17T11:50:10;10.90;;;10.00;;
1414;SDS011;702;49.466;11.086;2023-08-17T11:52:38;9.60;;;8.90;;
1414;SDS011;702;49.466;11.086;2023-08-17T11:55:06;9.20;;;8.50;;
1414;SDS011;702;49.466;11.086;2023-08-17T11:57:36;9.70;;;8.90;;
1414;SDS011;702;49.466;11.086;2023-08-17T12:00:04;10.00;;;9.20;;
1414;SDS011;702;49.466;11.086;2023-08-17T12:02:35;8.93;;;8.27;;
1414;SDS011;702;49.466;11.086;2023-08-17T12:05:08;10.27;;;9.57;;
1414;SDS011;702;49.466;11.086;2023-08-17T12:07:35;8.97;;;8.27;;
1414;SDS011;702;49.466;11.086;2023-08-17T12:10:03;8.63;;;8.03;;
1414;SDS011;702;49.466;11.086;2023-08-17T12:12:35;9.43;;;8.73;;
1414;SDS011;702;49.466;11.086;2023-08-17T12:15:05;9.33;;;8.50;;
1414;SDS011;702;49.466;11.086;2023-08-17T12:17:33;9.80;;;9.10;;
1414;SDS011;702;49.466;11.086;2023-08-17T12:20:01;9.60;;;8.90;;
1414;SDS011;702;49.466;11.086;2023-08-17T12:22:30;9.00;;;8.30;;
1414;SDS011;702;49.466;11.086;2023-08-17T12:24:57;8.83;;;8.23;;
1414;SDS011;702;49.466;11.086;2023-08-17T12:27:25;9.20;;;8.60;;
1414;SDS011;702;49.466;11.086;2023-08-17T12:29:52;9.37;;;8.57;;
1414;SDS011;702;49.466;11.086;2023-08-17T12:32:19;9.20;;;8.50;;
1414;SDS011;702;49.466;11.086;2023-08-17T12:34:47;9.50;;;8.80;;
1414;SDS011;702;49.466;11.086;2023-08-17T12:37:18;8.80;;;8.10;;
1414;SDS011;702;49.466;11.086;2023-08-17T12:39:48;9.07;;;8.37;;
1414;SDS011;702;49.466;11.086;2023-08-17T12:42:15;8.53;;;7.93;;
1414;SDS011;702;49.466;11.086;2023-08-17T12:44:43;8.90;;;8.20;;
1414;SDS011;702;49.466;11.086;2023-08-17T12:47:10;8.67;;;7.97;;
1414;SDS011;702;49.466;11.086;2023-08-17T12:49:37;8.37;;;7.80;;
1414;SDS011;702;49.466;11.086;2023-08-17T12:52:05;8.97;;;8.10;;
1414;SDS011;702;49.466;11.086;2023-08-17T12:54:32;7.73;;;7.13;;
1414;SDS011;702;49.466;11.086;2023-08-17T12:57:01;7.53;;;7.03;;
1414;SDS011;702;49.466;11.086;2023-08-17T12:59:29;7.57;;;7.00;;
1414;SDS011;702;49.466;11.086;2023-08-17T13:01:56;8.80;;;8.00;;
1414;SDS011;702;49.466;11.086;2023-08-17T13:04:23;8.80;;;8.10;;
1414;SDS011;702;49.466;11.086;2023-08-17T13:06:50;8.40;;;7.83;;
1414;SDS011;702;49.466;11.086;2023-08-17T13:09:19;8.00;;;7.40;;
1414;SDS011;702;49.466;11.086;2023-08-17T13:11:46;7.50;;;7.00;;
1414;SDS011;702;49.466;11.086;2023-08-17T13:14:15;9.60;;;8.90;;
1414;SDS011;702;49.466;11.086;2023-08-17T13:16:42;7.57;;;6.83;;
1414;SDS011;702;49.466;11.086;2023-08-17T13:19:09;8.40;;;7.73;;
1414;SDS011;702;49.466;11.086;2023-08-17T13:21:36;8.73;;;8.13;;
1414;SDS011;702;49.466;11.086;2023-08-17T13:24:03;7.60;;;7.10;;
1414;SDS011;702;49.466;11.086;2023-08-17T13:26:32;7.57;;;6.97;;
1414;SDS011;702;49.466;11.086;2023-08-17T13:28:59;7.80;;;7.20;;
1414;SDS011;702;49.466;11.086;2023-08-17T13:31:27;7.50;;;6.90;;
1414;SDS011;702;49.466;11.086;2023-08-17T13:33:56;7.27;;;6.67;;
1414;SDS011;702;49.466;11.086;2023-08-17T13:36:23;8.00;;;7.40;;
1414;SDS011;702;49.466;11.086;2023-08-17T13:38:50;8.47;;;7.87;;
1414;SDS011;702;49.466;11.086;2023-08-17T13:41:17;8.43;;;7.73;;
1414;SDS011;702;49.466;11.086;2023-08-17T13:43:44;7.57;;;7.07;;
1414;SDS011;702;49.466;11.086;2023-08-17T13:46:12;8.13;;;7.43;;
1414;SDS011;702;49.466;11.086;2023-08-17T13:48:40;8.33;;;7.63;;
1414;SDS011;702;49.466;11.086;2023-08-17T13:51:07;8.07;;;7.40;;
1414;SDS011;702;49.466;11.086;2023-08-17T13:53:34;8.20;;;7.50;;
1414;SDS011;702;49.466;11.086;2023-08-17T13:56:01;7.90;;;7.30;;
1414;SDS011;702;49.466;11.086;2023-08-17T13:58:29;8.10;;;7.50;;
1414;SDS011;702;49.466;11.086;2023-08-17T14:00:57;8.30;;;7.60;;
1414;SDS011;702;49.466;11.086;2023-08-17T14:03:24;7.90;;;7.37;;
1414;SDS011;702;49.466;11.086;2023-08-17T14:05:54;7.90;;;7.20;;
1414;SDS011;702;49.466;11.086;2023-08-17T14:08:22;8.47;;;7.77;;
1414;SDS011;702;49.466;11.086;2023-08-17T14:10:49;7.57;;;6.97;;
1414;SDS011;702;49.466;11.086;2023-08-17T14:13:17;7.17;;;6.70;;
1414;SDS011;702;49.466;11.086;2023-08-17T14:15:44;7.80;;;7.13;;
1414;SDS011;702;49.466;11.086;2023-08-17T14:18:11;8.33;;;7.73;;
1414;SDS011;702;49.466;11.086;2023-08-17T14:20:38;8.40;;;7.80;;
1414;SDS011;702;49.466;11.086;2023-08-17T14:23:07;8.00;;;7.30;;
1414;SDS011;702;49.466;11.086;2023-08-17T14:25:34;10.10;;;9.30;;
1414;SDS011;702;49.466;11.086;2023-08-17T14:28:03;8.93;;;8.23;;
1414;SDS011;702;49.466;11.086;2023-08-17T14:30:32;8.87;;;8.27;;
1414;SDS011;702;49.466;11.086;2023-08-17T14:32:59;8.97;;;8.37;;
1414;SDS011;702;49.466;11.086;2023-08-17T14:35:27;10.10;;;9.40;;
1414;SDS011;702;49.466;11.086;2023-08-17T14:37:54;9.10;;;8.40;;
1414;SDS011;702;49.466;11.086;2023-08-17T14:40:24;9.97;;;9.07;;
1414;SDS011;702;49.466;11.086;2023-08-17T14:42:52;8.73;;;8.03;;
1414;SDS011;702;49.466;11.086;2023-08-17T14:45:19;10.10;;;9.20;;
1414;SDS011;702;49.466;11.086;2023-08-17T14:47:46;9.50;;;8.80;;
1414;SDS011;702;49.466;11.086;2023-08-17T14:50:13;8.33;;;7.73;;
1414;SDS011;702;49.466;11.086;2023-08-17T14:52:41;9.60;;;8.90;;
1414;SDS011;702;49.466;11.086;2023-08-17T14:55:08;9.73;;;8.93;;
1414;SDS011;702;49.466;11.086;2023-08-17T14:57:37;9.87;;;9.07;;
1414;SDS011;702;49.466;11.086;2023-08-17T15:00:05;9.97;;;9.20;;
1414;SDS011;702;49.466;11.086;2023-08-17T15:02:36;9.63;;;8.93;;
1414;SDS011;702;49.466;11.086;2023-08-17T15:05:03;9.67;;;8.87;;
1414;SDS011;702;49.466;11.086;2023-08-17T15:07:32;10.27;;;9.57;;
1414;SDS011;702;49.466;11.086;2023-08-17T15:09:59;10.20;;;9.50;;
1414;SDS011;702;49.466;11.086;2023-08-17T15:12:26;9.50;;;8.70;;
1414;SDS011;702;49.466;11.086;2023-08-17T15:14:55;10.70;;;9.90;;
1414;SDS011;702;49.466;11.086;2023-08-17T15:17:22;9.33;;;8.73;;
1414;SDS011;702;49.466;11.086;2023-08-17T15:19:49;10.33;;;9.33;;